Time;durP1;ratioP1;P1;durP2;ratioP2;P2;SDS_P1;SDS_P2;PMS_P1;PMS_P2;Temp;Humidity;BMP_temperature;BMP_pressure;BME280_temperature;BME280_humidity;BME280_pressure;Samples;Min_cycle;Max_cycle;Signal;HPM_P1;HPM_P2
2024/02/01 00:02:26;;;;;;;52.20;31.20;;;;;;;0.78;86.46;99662.27;226343;1274;22555;-81
2024/02/01 00:07:28;;;;;;;49.60;31.50;;;;;;;0.77;86.66;99664.05;226318;1274;22555;-81
2024/02/01 00:12:30;;;;;;;51.50;32.00;;;;;;;0.80;87.13;99666.13;226511;1270;22547;-80
2024/02/01 00:17:32;;;;;;;44.90;26.80;;;;;;;0.86;87.45;99658.61;226457;1273;22559;-80
2024/02/01 00:22:34;;;;;;;49.20;31.00;;;;;;;0.90;87.62;99651.86;226526;1269;22623;-81
2024/02/01 00:27:36;;;;;;;44.40;29.80;;;;;;;0.98;87.96;99646.13;226393;1274;22575;-81
2024/02/01 00:32:38;;;;;;;40.80;26.10;;;;;;;1.06;87.74;99644.68;226566;1270;22540;-81
2024/02/01 00:37:41;;;;;;;43.90;28.70;;;;;;;1.15;87.87;99634.39;226365;1274;22561;-81
2024/02/01 00:42:43;;;;;;;36.80;24.80;;;;;;;1.21;87.68;99623.48;226572;1274;23009;-81
2024/02/01 00:47:48;;;;;;;42.90;27.60;;;;;;;1.27;87.77;99610.95;226590;1270;23046;-81
2024/02/01 00:52:50;;;;;;;43.00;27.60;;;;;;;1.31;87.83;99597.29;226212;1267;23010;-81
2024/02/01 00:57:52;;;;;;;40.90;25.40;;;;;;;1.31;87.72;99586.35;226391;1274;22574;-81
2024/02/01 01:02:55;;;;;;;40.60;26.80;;;;;;;1.29;87.85;99570.72;226357;1272;25307;-81
2024/02/01 01:07:57;;;;;;;39.50;24.90;;;;;;;1.26;87.78;99552.36;226399;1273;23140;-82
2024/02/01 01:12:59;;;;;;;45.60;28.30;;;;;;;1.24;87.89;99544.56;226455;1274;22540;-80
2024/02/01 01:18:01;;;;;;;41.70;25.80;;;;;;;1.20;87.82;99533.23;226352;1267;22580;-81
2024/02/01 01:23:06;;;;;;;50.20;31.60;;;;;;;1.14;87.91;99509.40;226476;1274;22586;-81
2024/02/01 01:28:08;;;;;;;52.70;33.50;;;;;;;1.10;87.81;99499.25;226572;1274;22523;-81
2024/02/01 01:33:10;;;;;;;50.00;30.20;;;;;;;1.08;88.07;99487.39;226375;1268;24290;-81
2024/02/01 01:38:12;;;;;;;53.60;33.90;;;;;;;1.06;88.14;99484.55;226347;1274;22536;-81
2024/02/01 01:43:14;;;;;;;55.80;34.90;;;;;;;1.04;88.18;99469.28;226367;1274;22554;-82
2024/02/01 01:48:16;;;;;;;55.50;35.20;;;;;;;1.00;88.01;99443.41;226420;1274;22549;-81
2024/02/01 01:53:18;;;;;;;55.60;34.30;;;;;;;0.97;88.38;99438.77;226281;1273;22547;-82
2024/02/01 01:58:20;;;;;;;49.90;30.30;;;;;;;0.94;88.40;99443.34;226480;1268;22550;-81
2024/02/01 02:03:27;;;;;;;49.90;31.20;;;;;;;0.92;88.57;99431.80;226527;1268;23036;-81
2024/02/01 02:08:29;;;;;;;46.40;27.10;;;;;;;0.92;88.34;99420.20;226526;1271;22540;-82
2024/02/01 02:13:31;;;;;;;43.80;28.20;;;;;;;0.90;88.53;99414.31;226372;1273;22626;-81
2024/02/01 02:18:33;;;;;;;50.60;29.30;;;;;;;0.90;88.79;99413.77;226600;1274;22548;-80
2024/02/01 02:23:36;;;;;;;49.00;30.20;;;;;;;0.92;88.93;99415.05;226432;1273;25389;-81
2024/02/01 02:28:38;;;;;;;45.60;28.30;;;;;;;0.94;88.83;99405.89;226473;1271;25411;-82
2024/02/01 02:33:41;;;;;;;47.00;28.80;;;;;;;0.96;88.99;99400.14;226312;1274;22553;-81
2024/02/01 02:38:43;;;;;;;45.10;27.90;;;;;;;0.99;88.91;99399.23;226500;1274;22535;-81
2024/02/01 02:43:45;;;;;;;41.00;26.40;;;;;;;1.01;88.96;99416.14;226469;1271;24248;-80
2024/02/01 02:48:47;;;;;;;45.10;27.50;;;;;;;1.02;88.79;99422.83;226488;1267;22563;-81
2024/02/01 02:53:49;;;;;;;44.90;28.10;;;;;;;0.99;88.79;99413.63;226407;1272;22566;-81
2024/02/01 02:58:51;;;;;;;35.30;19.90;;;;;;;1.02;88.82;99412.77;226472;1271;22571;-81
2024/02/01 03:03:54;;;;;;;49.10;28.80;;;;;;;1.04;88.83;99417.57;226404;1272;22551;-80
2024/02/01 03:08:56;;;;;;;43.10;25.30;;;;;;;1.07;89.03;99420.68;226480;1268;22554;-81
2024/02/01 03:13:58;;;;;;;39.80;23.40;;;;;;;1.11;88.89;99419.21;226484;1274;22563;-81
2024/02/01 03:19:00;;;;;;;44.50;25.70;;;;;;;1.15;88.99;99417.53;226414;1273;25369;-81
2024/02/01 03:24:03;;;;;;;45.40;27.10;;;;;;;1.16;89.06;99410.68;226426;1274;22543;-81
2024/02/01 03:29:06;;;;;;;40.50;25.30;;;;;;;1.18;89.13;99409.98;226330;1271;23755;-80
2024/02/01 03:34:10;;;;;;;46.60;29.20;;;;;;;1.17;88.76;99403.51;226372;1268;24270;-81
2024/02/01 03:39:22;;;;;;;39.20;23.70;;;;;;;1.14;88.87;99400.97;226373;1274;22536;-81
2024/02/01 03:44:25;;;;;;;45.70;27.20;;;;;;;1.12;88.84;99409.42;226280;1271;22536;-82
2024/02/01 03:49:27;;;;;;;40.70;27.40;;;;;;;1.11;88.90;99405.70;226373;1274;22543;-82
2024/02/01 03:54:31;;;;;;;44.90;27.80;;;;;;;1.11;88.96;99387.66;226434;1271;22905;-82
2024/02/01 03:59:34;;;;;;;45.30;26.80;;;;;;;1.07;88.76;99381.11;226438;1273;24189;-82
2024/02/01 04:04:37;;;;;;;43.90;27.10;;;;;;;1.05;88.62;99386.83;226604;1272;22735;-81
2024/02/01 04:09:39;;;;;;;37.80;22.80;;;;;;;1.06;89.00;99388.48;226512;1270;22835;-82
2024/02/01 04:14:41;;;;;;;44.80;27.20;;;;;;;1.09;88.95;99389.02;226509;1267;22563;-81
2024/02/01 04:19:43;;;;;;;43.20;26.90;;;;;;;1.12;89.02;99391.40;226337;1274;22604;-81
2024/02/01 04:24:45;;;;;;;42.80;27.30;;;;;;;1.13;88.86;99388.85;226371;1274;23182;-81
2024/02/01 04:29:47;;;;;;;44.10;26.80;;;;;;;1.15;89.04;99392.71;226410;1273;23161;-81
2024/02/01 04:34:49;;;;;;;46.30;27.50;;;;;;;1.14;88.88;99404.05;226391;1274;22662;-80
2024/02/01 04:39:51;;;;;;;45.60;26.50;;;;;;;1.13;89.00;99402.78;226365;1274;22953;-81
2024/02/01 04:44:57;;;;;;;49.20;28.60;;;;;;;1.13;88.91;99398.21;226526;1274;23694;-82
2024/02/01 04:50:02;;;;;;;43.20;28.00;;;;;;;1.12;88.88;99391.73;226548;1271;22551;-82
2024/02/01 04:55:05;;;;;;;46.50;27.60;;;;;;;1.09;88.70;99382.26;226402;1274;22544;-82
2024/02/01 05:00:14;;;;;;;44.80;28.70;;;;;;;1.06;88.97;99381.17;226419;1268;22545;-81
2024/02/01 05:05:17;;;;;;;50.90;28.90;;;;;;;1.09;88.85;99376.36;226485;1273;22612;-80
2024/02/01 05:10:19;;;;;;;43.90;26.30;;;;;;;1.13;89.27;99375.48;226452;1273;22559;-82
2024/02/01 05:15:21;;;;;;;45.60;28.50;;;;;;;1.18;89.20;99363.65;226575;1271;22569;-81
2024/02/01 05:20:24;;;;;;;47.50;28.80;;;;;;;1.21;89.21;99352.31;226499;1274;24306;-82
2024/02/01 05:25:27;;;;;;;43.00;27.20;;;;;;;1.22;88.95;99352.92;226423;1268;22548;-80
2024/02/01 05:30:29;;;;;;;48.00;29.10;;;;;;;1.26;89.27;99362.91;226408;1274;22536;-81
2024/02/01 05:35:33;;;;;;;43.50;27.60;;;;;;;1.27;88.96;99363.89;226405;1273;22586;-80
2024/02/01 05:40:39;;;;;;;47.40;28.70;;;;;;;1.27;88.89;99365.28;226503;1272;22548;-82
2024/02/01 05:45:41;;;;;;;41.60;27.60;;;;;;;1.25;88.96;99357.75;226344;1274;22540;-81
2024/02/01 05:50:43;;;;;;;42.50;27.00;;;;;;;1.23;88.90;99347.16;226458;1274;22574;-81
2024/02/01 05:55:46;;;;;;;47.60;29.70;;;;;;;1.24;89.06;99351.78;226540;1267;22541;-81
2024/02/01 06:00:54;;;;;;;45.10;27.70;;;;;;;1.25;89.12;99340.21;226506;1274;22544;-81
2024/02/01 06:05:56;;;;;;;44.00;26.00;;;;;;;1.31;89.21;99339.95;226367;1274;22533;-81
2024/02/01 06:10:58;;;;;;;45.90;29.10;;;;;;;1.38;89.39;99338.91;226524;1274;23038;-81
2024/02/01 06:16:00;;;;;;;48.00;29.30;;;;;;;1.44;89.32;99328.40;226575;1271;25295;-81
2024/02/01 06:21:02;;;;;;;50.90;31.60;;;;;;;1.52;89.39;99324.85;226360;1274;22554;-82
2024/02/01 06:26:05;;;;;;;48.20;30.00;;;;;;;1.61;89.47;99334.23;226540;1270;22551;-80
2024/02/01 06:31:13;;;;;;;50.40;31.80;;;;;;;1.68;89.20;99340.40;226549;1274;22583;-81
2024/02/01 06:36:15;;;;;;;46.90;29.20;;;;;;;1.74;89.23;99335.96;226489;1271;22534;-81
2024/02/01 06:41:27;;;;;;;49.60;30.90;;;;;;;1.81;89.32;99326.20;226440;1274;25394;-81
2024/02/01 06:47:12;;;;;;;50.90;33.00;;;;;;;1.88;89.15;99319.59;226497;1257;22545;-83
2024/02/01 06:52:02;;;;;;;48.50;31.40;;;;;;;1.95;89.10;99319.23;226414;1267;24232;-81
2024/02/01 06:57:13;;;;;;;51.20;32.50;;;;;;;2.03;89.01;99323.98;226362;1254;22532;-82
2024/02/01 07:02:34;;;;;;;52.50;32.60;;;;;;;2.09;89.07;99325.36;226496;1262;22565;-83
2024/02/01 07:07:46;;;;;;;55.00;33.00;;;;;;;2.16;88.81;99327.42;226434;1255;23007;-83
2024/02/01 07:13:06;;;;;;;49.90;32.40;;;;;;;2.24;88.80;99317.80;226352;1254;24354;-81
2024/02/01 07:18:14;;;;;;;50.70;32.50;;;;;;;2.29;88.70;99311.60;226227;1270;25336;-82
2024/02/01 08:00:33;;;;;;;49.50;32.20;;;;;;;2.83;87.76;99318.38;226207;1274;22649;-80
2024/02/01 08:10:58;;;;;;;53.40;33.90;;;;;;;3.04;87.53;99329.29;226141;1272;22550;-80
2024/02/01 08:16:02;;;;;;;48.10;31.90;;;;;;;3.10;87.18;99327.38;226267;1267;22759;-80
2024/02/01 08:21:14;;;;;;;52.50;32.00;;;;;;;3.19;87.46;99328.39;226409;1271;24241;-81
2024/02/01 08:26:16;;;;;;;44.80;28.10;;;;;;;3.31;87.41;99327.95;226318;1258;22560;-80
2024/02/01 08:31:18;;;;;;;44.10;29.20;;;;;;;3.42;86.95;99327.68;226369;1273;22552;-79
2024/02/01 08:36:20;;;;;;;40.30;25.50;;;;;;;3.54;86.75;99324.42;226475;1253;22536;-77
2024/02/01 08:41:22;;;;;;;38.60;25.10;;;;;;;3.67;86.96;99321.54;226052;1269;150140;-78
2024/02/01 08:46:24;;;;;;;32.90;22.40;;;;;;;3.81;86.81;99325.88;226426;1271;26194;-78
2024/02/01 08:51:26;;;;;;;34.50;23.20;;;;;;;3.95;86.37;99317.94;226080;1273;22543;-77
2024/02/01 08:56:36;;;;;;;43.60;24.20;;;;;;;4.08;86.28;99322.15;226143;1256;22633;-77
2024/02/01 09:01:39;;;;;;;42.40;23.20;;;;;;;4.20;86.18;99331.54;225935;1260;22541;-77
2024/02/01 09:06:41;;;;;;;36.30;22.70;;;;;;;4.27;86.06;99344.52;225964;1268;26339;-77
2024/02/01 09:11:43;;;;;;;33.90;22.40;;;;;;;4.35;85.92;99354.15;225972;1265;25325;-77
2024/02/01 09:16:45;;;;;;;33.20;22.80;;;;;;;4.41;86.00;99366.65;226090;1271;22541;-80
2024/02/01 09:21:47;;;;;;;31.00;22.30;;;;;;;4.43;85.44;99378.02;226202;1255;22554;-81
2024/02/01 09:26:49;;;;;;;32.80;22.70;;;;;;;4.42;85.72;99390.14;226124;1255;22548;-82
2024/02/01 09:31:55;;;;;;;30.70;21.10;;;;;;;4.42;85.86;99396.77;226057;1256;22549;-80
2024/02/01 09:36:58;;;;;;;31.10;20.70;;;;;;;4.40;85.54;99393.65;226193;1270;22550;-82
2024/02/01 09:42:11;;;;;;;28.30;18.90;;;;;;;4.37;85.72;99390.59;226253;1272;22928;-80
2024/02/01 09:47:14;;;;;;;31.20;20.40;;;;;;;4.35;85.96;99392.66;226179;1256;23084;-80
2024/02/01 09:52:17;;;;;;;30.60;19.70;;;;;;;4.33;85.82;99396.48;226164;1256;22608;-82
2024/02/01 09:57:19;;;;;;;31.30;21.10;;;;;;;4.34;86.10;99394.36;226143;1267;22559;-81
2024/02/01 10:02:22;;;;;;;36.00;22.40;;;;;;;4.35;86.15;99397.10;226270;1267;22556;-82
2024/02/01 10:07:24;;;;;;;30.50;20.80;;;;;;;4.33;86.29;99392.70;226251;1252;22562;-81
2024/02/01 10:12:26;;;;;;;31.10;20.30;;;;;;;4.34;86.31;99382.47;226224;1274;22550;-82
2024/02/01 10:17:30;;;;;;;29.40;18.70;;;;;;;4.33;86.57;99377.30;226270;1270;24279;-82
2024/02/01 10:22:32;;;;;;;30.80;19.80;;;;;;;4.32;86.79;99370.48;226185;1269;22551;-81
2024/02/01 10:27:39;;;;;;;28.40;18.30;;;;;;;4.33;86.88;99369.50;226327;1258;22548;-83
2024/02/01 10:32:46;;;;;;;39.00;27.40;;;;;;;4.35;87.00;99363.02;226340;1274;22555;-82
2024/02/01 10:37:51;;;;;;;28.20;19.00;;;;;;;4.38;87.24;99350.03;226296;1272;22548;-82
2024/02/01 10:42:59;;;;;;;31.00;19.90;;;;;;;4.43;87.49;99346.48;226404;1257;22590;-81
2024/02/01 10:48:08;;;;;;;29.70;19.40;;;;;;;4.42;87.16;99344.48;226203;1273;25213;-79
2024/02/01 10:53:15;;;;;;;33.00;23.10;;;;;;;4.42;87.33;99342.34;226177;1273;22583;-79
2024/02/01 10:58:19;;;;;;;31.90;22.50;;;;;;;4.38;87.50;99338.88;226288;1271;22543;-82
2024/02/01 11:03:27;;;;;;;35.20;24.20;;;;;;;4.33;87.65;99333.89;226396;1268;25405;-81
2024/02/01 11:08:33;;;;;;;37.50;26.10;;;;;;;4.33;87.59;99325.02;226279;1273;23006;-82
2024/02/01 11:13:34;;;;;;;40.00;27.30;;;;;;;4.35;88.09;99312.33;226344;1260;24310;-81
2024/02/01 11:18:47;;;;;;;50.50;31.80;;;;;;;4.35;87.89;99314.41;226365;1260;25344;-79
2024/02/01 11:23:49;;;;;;;37.90;25.10;;;;;;;4.34;88.16;99319.53;226299;1272;23027;-80
2024/02/01 11:28:53;;;;;;;43.20;27.60;;;;;;;4.31;88.03;99322.58;226236;1260;22612;-80
2024/02/01 11:33:55;;;;;;;36.80;25.50;;;;;;;4.27;88.20;99320.88;226162;1272;22562;-80
2024/02/01 11:38:57;;;;;;;41.60;26.40;;;;;;;4.25;88.47;99320.48;226050;1268;22555;-78
2024/02/01 11:43:59;;;;;;;46.10;29.10;;;;;;;4.27;88.42;99318.98;225999;1260;22591;-81
2024/02/01 11:49:01;;;;;;;36.20;25.50;;;;;;;4.32;88.33;99315.34;225796;1269;22946;-79
2024/02/01 11:54:04;;;;;;;42.50;28.00;;;;;;;4.36;88.55;99313.28;226038;1271;22554;-79
2024/02/01 11:59:06;;;;;;;44.20;27.70;;;;;;;4.36;88.93;99313.92;226256;1259;22580;-80
2024/02/01 12:04:08;;;;;;;45.60;31.00;;;;;;;4.36;89.03;99316.37;226306;1273;24956;-80
2024/02/01 12:09:14;;;;;;;46.90;32.90;;;;;;;4.41;89.29;99316.67;226342;1271;24800;-81
2024/02/01 12:14:21;;;;;;;50.30;32.00;;;;;;;4.47;88.97;99313.27;226253;1267;22545;-80
2024/02/01 12:19:24;;;;;;;43.30;30.20;;;;;;;4.51;89.15;99307.52;226134;1267;22542;-80
2024/02/01 12:24:26;;;;;;;43.80;28.70;;;;;;;4.53;88.79;99304.74;226431;1266;23696;-81
2024/02/01 12:29:29;;;;;;;46.50;30.80;;;;;;;4.51;88.87;99304.59;226187;1273;22612;-79
2024/02/01 12:34:32;;;;;;;40.90;28.60;;;;;;;4.50;89.10;99302.39;226334;1271;22579;-81
2024/02/01 12:39:40;;;;;;;39.20;27.90;;;;;;;4.49;89.22;99301.62;226457;1270;23449;-83
2024/02/01 12:44:42;;;;;;;41.40;30.00;;;;;;;4.49;89.37;99302.50;226180;1270;22553;-82
2024/02/01 12:49:45;;;;;;;38.50;26.30;;;;;;;4.49;89.35;99303.03;226139;1257;22551;-82
2024/02/01 12:54:47;;;;;;;39.30;26.80;;;;;;;4.48;89.35;99302.42;226277;1261;22544;-81
2024/02/01 12:59:49;;;;;;;39.80;27.00;;;;;;;4.47;89.45;99303.69;226182;1251;22801;-81
2024/02/01 13:04:52;;;;;;;36.20;26.00;;;;;;;4.46;89.46;99300.27;226032;1271;22629;-80
2024/02/01 13:09:54;;;;;;;37.00;27.40;;;;;;;4.48;89.56;99301.13;226144;1264;22543;-82
2024/02/01 13:15:05;;;;;;;34.40;25.80;;;;;;;4.56;89.61;99301.17;226064;1270;24090;-81
2024/02/01 13:20:21;;;;;;;41.30;27.80;;;;;;;4.59;89.45;99295.64;226397;1258;22549;-81
2024/02/01 13:25:24;;;;;;;38.20;26.20;;;;;;;4.63;89.52;99295.80;226306;1268;22577;-81
2024/02/01 13:30:26;;;;;;;40.40;27.20;;;;;;;4.70;89.15;99297.81;226057;1260;25421;-79
2024/02/01 13:35:30;;;;;;;44.20;28.00;;;;;;;4.70;88.96;99305.50;226225;1267;22581;-81
2024/02/01 13:40:33;;;;;;;38.20;26.50;;;;;;;4.71;89.36;99305.81;226154;1267;23088;-81
2024/02/01 13:45:35;;;;;;;37.20;26.90;;;;;;;4.76;88.97;99302.30;226257;1270;22581;-82
2024/02/01 13:50:37;;;;;;;31.90;22.90;;;;;;;4.80;89.23;99305.08;225976;1251;22568;-80
2024/02/01 13:55:39;;;;;;;36.70;25.30;;;;;;;4.83;88.93;99307.08;226194;1254;23324;-82
2024/02/01 14:00:41;;;;;;;31.80;22.60;;;;;;;4.93;89.09;99305.84;226247;1257;22576;-84
2024/02/01 14:05:59;;;;;;;29.40;21.70;;;;;;;4.96;88.62;99308.67;226289;1270;22552;-82
2024/02/01 14:11:01;;;;;;;31.10;20.60;;;;;;;4.93;88.51;99305.29;226220;1268;22892;-83
2024/02/01 14:16:07;;;;;;;32.40;23.30;;;;;;;4.97;88.66;99312.48;226245;1261;22551;-85
2024/02/01 14:21:09;;;;;;;31.60;22.60;;;;;;;4.96;88.86;99317.56;226204;1270;22548;-81
2024/02/01 14:26:11;;;;;;;22.90;16.70;;;;;;;5.01;88.74;99328.89;226321;1251;23195;-81
2024/02/01 14:31:13;;;;;;;17.50;12.20;;;;;;;5.08;88.97;99341.33;226251;1265;22589;-83
2024/02/01 14:36:17;;;;;;;15.20;11.90;;;;;;;5.13;89.15;99345.88;226206;1270;25283;-84
2024/02/01 14:41:19;;;;;;;17.60;11.60;;;;;;;5.18;88.86;99349.98;226190;1267;22552;-80
2024/02/01 14:46:21;;;;;;;14.80;11.70;;;;;;;5.23;88.55;99349.66;225965;1264;22701;-81
2024/02/01 14:51:23;;;;;;;17.40;11.30;;;;;;;5.19;88.59;99347.67;226050;1257;22581;-80
2024/02/01 14:56:25;;;;;;;15.30;11.60;;;;;;;5.11;88.29;99350.98;226015;1258;22615;-81
2024/02/01 15:01:28;;;;;;;16.10;12.30;;;;;;;4.98;88.30;99352.48;226045;1273;22554;-82
2024/02/01 15:06:31;;;;;;;13.20;10.60;;;;;;;4.85;88.42;99358.05;225897;1272;25252;-83
2024/02/01 15:11:33;;;;;;;13.60;11.10;;;;;;;4.73;88.30;99366.80;225896;1274;22594;-75
2024/02/01 15:16:35;;;;;;;10.50;8.50;;;;;;;4.65;88.79;99364.23;226016;1254;22659;-80
2024/02/01 15:21:39;;;;;;;10.90;8.10;;;;;;;4.56;88.70;99364.66;226235;1264;22586;-80
2024/02/01 15:26:42;;;;;;;11.90;9.20;;;;;;;4.45;88.63;99378.02;226342;1273;22562;-79
2024/02/01 15:31:47;;;;;;;11.70;9.20;;;;;;;4.33;88.56;99382.54;226475;1271;22488;-80
2024/02/01 15:36:49;;;;;;;12.00;9.00;;;;;;;4.23;88.94;99387.66;226487;1267;22550;-82
2024/02/01 15:41:57;;;;;;;9.50;7.70;;;;;;;4.10;88.88;99389.46;226325;1270;22558;-81
2024/02/01 15:47:00;;;;;;;17.80;11.10;;;;;;;3.98;89.04;99392.79;226467;1263;23322;-81
2024/02/01 15:52:04;;;;;;;15.50;11.10;;;;;;;3.85;89.29;99397.70;226452;1267;22551;-79
2024/02/01 15:57:05;;;;;;;19.40;13.10;;;;;;;3.74;89.33;99406.54;226403;1273;22548;-82
2024/02/01 16:02:09;;;;;;;14.40;10.90;;;;;;;3.60;89.56;99405.23;226547;1251;25370;-86
2024/02/01 16:07:11;;;;;;;14.90;10.40;;;;;;;3.48;89.63;99410.36;226599;1272;22540;-83
2024/02/01 16:12:18;;;;;;;18.10;12.20;;;;;;;3.39;89.65;99424.57;226509;1272;24238;-85
2024/02/01 16:17:21;;;;;;;20.20;13.20;;;;;;;3.30;89.84;99430.24;226571;1273;23134;-86
2024/02/01 16:22:45;;;;;;;20.30;13.80;;;;;;;3.20;89.88;99437.12;226476;1269;23015;-85
2024/02/01 16:28:03;;;;;;;25.60;17.40;;;;;;;3.09;89.81;99444.06;226606;1273;22607;-84
2024/02/01 16:33:19;;;;;;;27.10;17.90;;;;;;;3.01;90.03;99450.55;226460;1271;22542;-84
2024/02/01 16:38:24;;;;;;;28.40;18.10;;;;;;;2.94;89.96;99458.71;226640;1258;22807;-83
2024/02/01 16:43:40;;;;;;;28.10;18.40;;;;;;;2.90;90.31;99465.63;226475;1273;22579;-84
2024/02/01 16:48:42;;;;;;;30.10;19.80;;;;;;;2.89;90.39;99468.16;226485;1273;22617;-84
2024/02/01 16:53:46;;;;;;;29.30;21.00;;;;;;;2.90;90.58;99472.77;226430;1267;22569;-85
2024/02/01 16:58:56;;;;;;;32.40;23.00;;;;;;;2.89;90.69;99474.81;226518;1268;24302;-82
2024/02/01 17:03:59;;;;;;;;;;;;;;;2.88;90.67;99482.05;226509;1273;22485;-86
2024/02/01 17:09:04;;;;;;;34.00;23.80;;;;;;;2.87;90.86;99491.67;226326;1273;22597;-83
2024/02/01 17:14:29;;;;;;;36.10;24.00;;;;;;;2.90;90.83;99493.73;226643;1267;23059;-84
2024/02/01 17:19:36;;;;;;;34.60;23.00;;;;;;;2.93;90.84;99494.14;226423;1273;22712;-84
2024/02/01 17:24:39;;;;;;;34.40;24.00;;;;;;;2.97;90.95;99496.44;226473;1269;22550;-85
2024/02/01 17:29:43;;;;;;;32.60;22.90;;;;;;;3.01;91.06;99496.91;226432;1273;22623;-85
2024/02/01 17:34:45;;;;;;;37.10;24.20;;;;;;;3.05;90.87;99499.23;226335;1271;22551;-85
2024/02/01 17:39:48;;;;;;;33.40;23.40;;;;;;;3.08;90.89;99499.21;226599;1270;25266;-84
2024/02/01 17:44:50;;;;;;;33.80;23.70;;;;;;;3.10;90.74;99499.73;226585;1267;23163;-84
2024/02/01 17:49:53;;;;;;;33.40;22.10;;;;;;;3.13;90.57;99500.86;226474;1269;23016;-84
2024/02/01 17:54:56;;;;;;;31.70;20.80;;;;;;;3.16;90.73;99503.73;226541;1274;22586;-84
2024/02/01 17:59:58;;;;;;;30.70;18.40;;;;;;;3.17;90.38;99502.23;226619;1270;22556;-84
2024/02/01 18:05:00;;;;;;;28.30;19.20;;;;;;;3.18;90.57;99503.39;226476;1273;22954;-84
2024/02/01 18:10:08;;;;;;;28.10;17.50;;;;;;;3.19;90.45;99509.08;226639;1274;22536;-84
2024/02/01 18:15:35;;;;;;;27.50;17.20;;;;;;;3.22;90.47;99512.88;226477;1273;25368;-86
2024/02/01 18:20:38;;;;;;;20.60;14.60;;;;;;;3.26;89.99;99510.45;226646;1268;22555;-84
2024/02/01 18:25:41;;;;;;;21.30;15.00;;;;;;;3.30;90.11;99518.98;226344;1274;22575;-85
2024/02/01 18:30:43;;;;;;;24.50;15.90;;;;;;;3.33;89.77;99525.52;226400;1271;22581;-84
2024/02/01 18:35:55;;;;;;;21.80;15.10;;;;;;;3.35;89.82;99522.77;226426;1273;22554;-85
2024/02/01 18:40:58;;;;;;;25.90;15.90;;;;;;;3.35;89.40;99528.67;226530;1273;22566;-84
2024/02/01 18:46:01;;;;;;;25.70;16.50;;;;;;;3.34;89.49;99526.11;226434;1270;22817;-85
2024/02/01 18:51:06;;;;;;;25.90;16.30;;;;;;;3.34;89.31;99522.36;226650;1273;22526;-85
2024/02/01 18:56:28;;;;;;;30.70;18.80;;;;;;;3.31;89.15;99520.46;226708;1274;22608;-85
2024/02/01 19:01:34;;;;;;;29.00;19.10;;;;;;;3.30;89.20;99535.68;226532;1265;23154;-84
2024/02/01 19:06:39;;;;;;;26.40;15.50;;;;;;;3.28;88.94;99533.21;226315;1274;22564;-85
2024/02/01 19:11:45;;;;;;;20.10;12.30;;;;;;;3.29;88.99;99534.05;226468;1273;22610;-86
2024/02/01 19:16:49;;;;;;;16.20;10.90;;;;;;;3.30;88.86;99536.89;226660;1274;22531;-86
2024/02/01 19:21:51;;;;;;;16.30;10.40;;;;;;;3.35;88.75;99538.27;226606;1269;22583;-84
2024/02/01 19:26:56;;;;;;;15.70;9.50;;;;;;;3.40;88.68;99541.86;226679;1272;22609;-85
2024/02/01 19:31:59;;;;;;;15.40;9.40;;;;;;;3.42;88.38;99547.03;226648;1271;22550;-85
2024/02/01 19:37:01;;;;;;;16.70;9.90;;;;;;;3.44;88.33;99546.73;226684;1266;23306;-84
2024/02/01 19:42:04;;;;;;;15.10;9.50;;;;;;;3.45;88.25;99552.25;226635;1274;22550;-85
2024/02/01 19:47:06;;;;;;;17.80;11.60;;;;;;;3.46;88.13;99556.02;226482;1273;22511;-85
2024/02/01 19:52:08;;;;;;;18.40;12.60;;;;;;;3.44;87.89;99554.34;226684;1274;22546;-85
2024/02/01 19:57:10;;;;;;;15.30;9.80;;;;;;;3.44;87.83;99555.46;226462;1273;22563;-85
2024/02/01 20:02:13;;;;;;;14.00;9.20;;;;;;;3.43;87.65;99550.31;226686;1270;22660;-86
2024/02/01 20:07:14;;;;;;;14.80;8.40;;;;;;;3.40;87.63;99551.94;226700;1273;22584;-84
2024/02/01 20:12:17;;;;;;;14.50;8.40;;;;;;;3.37;87.63;99551.87;226491;1268;22565;-85
2024/02/01 20:17:19;;;;;;;13.70;8.40;;;;;;;3.31;87.52;99558.45;226555;1257;22580;-84
2024/02/01 20:22:22;;;;;;;14.80;8.00;;;;;;;3.22;87.45;99560.40;226431;1270;22560;-86
2024/02/01 20:27:24;;;;;;;12.80;8.00;;;;;;;3.11;87.31;99562.47;226654;1268;22734;-83
2024/02/01 20:32:26;;;;;;;12.10;7.50;;;;;;;3.00;87.27;99569.07;226642;1269;22564;-85
2024/02/01 20:37:32;;;;;;;13.40;7.90;;;;;;;2.92;87.32;99572.48;226495;1272;22542;-85
2024/02/01 20:42:34;;;;;;;13.00;7.20;;;;;;;2.87;87.16;99584.58;226170;1274;309253;-86
2024/02/01 20:47:39;;;;;;;14.60;8.40;;;;;;;2.81;86.97;99583.28;226505;1274;22549;-85
2024/02/01 20:52:41;;;;;;;12.90;7.40;;;;;;;2.75;87.12;99590.66;226718;1274;22565;-84
2024/02/01 20:57:47;;;;;;;14.30;7.70;;;;;;;2.76;87.06;99587.34;226500;1273;22555;-86
2024/02/01 21:02:52;;;;;;;13.10;7.30;;;;;;;2.75;87.06;99591.74;226475;1269;22549;-84
2024/02/01 21:07:54;;;;;;;14.30;6.70;;;;;;;2.74;87.03;99594.78;226650;1270;22577;-85
2024/02/01 21:13:13;;;;;;;12.80;7.00;;;;;;;2.71;86.96;99597.08;226492;1274;22527;-85
2024/02/01 21:18:19;;;;;;;12.50;6.40;;;;;;;2.69;86.76;99601.41;226459;1273;22551;-83
2024/02/01 21:23:25;;;;;;;10.90;6.40;;;;;;;2.69;87.06;99603.68;226707;1271;22578;-84
2024/02/01 21:28:27;;;;;;;14.00;6.30;;;;;;;2.70;87.05;99604.45;226613;1252;22586;-85
2024/02/01 21:33:29;;;;;;;11.10;5.90;;;;;;;2.75;86.89;99608.27;226421;1274;22564;-85
2024/02/01 21:38:32;;;;;;;10.90;6.40;;;;;;;2.79;86.73;99604.66;226574;1271;22591;-84
2024/02/01 21:43:36;;;;;;;12.30;6.30;;;;;;;2.82;86.80;99595.16;226459;1274;22547;-85
2024/02/01 21:48:39;;;;;;;13.40;6.60;;;;;;;2.85;86.59;99593.70;226522;1274;22583;-85
2024/02/01 21:53:42;;;;;;;15.70;7.70;;;;;;;2.88;86.35;99599.43;226595;1269;22543;-85
2024/02/01 21:58:45;;;;;;;11.00;5.80;;;;;;;2.91;86.27;99595.94;226702;1271;22574;-85
2024/02/01 22:03:48;;;;;;;13.40;6.20;;;;;;;2.91;86.18;99600.91;226440;1274;22536;-84
2024/02/01 22:08:54;;;;;;;13.50;6.70;;;;;;;2.93;86.24;99599.39;226395;1274;22551;-84
2024/02/01 22:13:56;;;;;;;17.10;7.30;;;;;;;2.95;86.24;99601.70;226636;1274;22540;-86
2024/02/01 22:18:58;;;;;;;18.40;7.50;;;;;;;2.96;86.02;99602.65;226667;1266;22551;-85
2024/02/01 22:24:00;;;;;;;14.60;6.40;;;;;;;2.97;85.90;99605.52;226653;1270;22537;-85
2024/02/01 22:29:02;;;;;;;12.50;5.50;;;;;;;2.97;85.88;99606.05;226466;1272;22619;-84
2024/02/01 22:34:04;;;;;;;16.70;6.10;;;;;;;2.97;85.57;99617.32;226647;1271;22547;-84
2024/02/01 22:39:15;;;;;;;11.90;5.30;;;;;;;2.98;85.40;99620.17;226604;1274;23006;-85
2024/02/01 22:44:19;;;;;;;12.50;6.00;;;;;;;3.00;85.30;99621.63;226478;1271;22593;-83
2024/02/01 22:49:21;;;;;;;10.70;4.70;;;;;;;3.02;85.27;99619.59;226549;1273;24225;-84
2024/02/01 22:54:24;;;;;;;9.40;4.60;;;;;;;3.04;85.17;99618.55;226469;1274;24355;-83
2024/02/01 22:59:27;;;;;;;9.40;4.30;;;;;;;3.07;85.02;99625.05;226501;1273;22553;-84
2024/02/01 23:04:29;;;;;;;10.40;4.80;;;;;;;3.10;84.91;99620.83;226528;1274;22624;-85
2024/02/01 23:09:31;;;;;;;10.30;4.20;;;;;;;3.13;84.98;99623.34;226547;1272;22539;-85
2024/02/01 23:14:34;;;;;;;14.30;4.70;;;;;;;3.15;84.67;99618.70;226587;1272;24943;-84
2024/02/01 23:19:35;;;;;;;12.70;4.70;;;;;;;3.16;84.50;99618.44;226570;1272;22563;-86
2024/02/01 23:24:40;;;;;;;11.10;4.00;;;;;;;3.18;84.18;99608.70;226398;1271;22555;-86
2024/02/01 23:29:42;;;;;;;8.30;3.80;;;;;;;3.19;84.26;99612.27;226667;1270;22569;-85
2024/02/01 23:34:44;;;;;;;9.60;3.60;;;;;;;3.20;84.11;99614.48;226600;1273;22567;-85
2024/02/01 23:39:47;;;;;;;7.50;3.10;;;;;;;3.22;83.91;99611.25;226644;1271;22551;-84
2024/02/01 23:44:49;;;;;;;11.30;3.60;;;;;;;3.22;83.64;99613.10;226556;1274;23065;-84
2024/02/01 23:49:51;;;;;;;10.10;3.90;;;;;;;3.25;83.44;99610.84;226587;1273;22555;-83
2024/02/01 23:54:55;;;;;;;12.70;3.60;;;;;;;3.27;83.38;99617.73;226642;1271;22555;-85
2024/02/01 23:59:57;;;;;;;9.60;2.80;;;;;;;3.29;83.21;99615.86;226567;1268;22586;-85
